MSC Jordan — HPMK — position and weather

sailwx.info

Track history (hours):
 
Tides and Currents Weather Stations Pressure Air Temp Water Temp Dewpoint Dewpoint Depression Visibility Wind Speed Wind Dir Waves Ship Positions

MSC Jordan

Last reported at 2017-Jan-19 22:30 UTC. Time now 2017-Jan-22 20:19 UTC.
Position N 14°09' W 017°24'.

Length 237 m; draft 10.9 m.

Type: Ship. MMSI: 355194000.

Date/timePositionNaut miles runAvg speedWind from/ knotsBaromVisibWave heightAir tempDewpointWater temp
2017-Jan-19 22:30N 14°09' W 017°24'1920.0
2017-Jan-19 21:33N 14°28' W 017°24'1313.1
2017-Jan-19 20:33N 14°41' W 017°25'0 0.4
2017-Jan-19 19:30N 14°41' W 017°26'0 0.0
2017-Jan-19 18:30N 14°41' W 017°26'0 0.0
2017-Jan-19 17:33N 14°41' W 017°26'0 0.0
2017-Jan-19 16:06N 14°41' W 017°26'0 0.0
2017-Jan-19 15:33N 14°41' W 017°26'0 0.0
2017-Jan-19 14:30N 14°41' W 017°26'0 0.0
2017-Jan-19 13:33N 14°41' W 017°26'0 0.0
2017-Jan-19 12:33N 14°41' W 017°26'0 0.0
2017-Jan-19 11:33N 14°41' W 017°26'0 0.0
2017-Jan-19 10:33N 14°41' W 017°26'3 2.9
2017-Jan-19 09:33N 14°41' W 017°23'6 2.9
2017-Jan-19 07:32N 14°36' W 017°19'43 6.8
2017-Jan-19 01:14N 15°11' W 017°44'76816.5
2017-Jan-17 02:33N 27°47' W 015°17'1817.7
2017-Jan-17 01:33N 28°04' W 015°20'6 5.9
2017-Jan-17 00:33N 28°08' W 015°25'0 0.0
2017-Jan-16 23:21N 28°08' W 015°25'0 0.0
2017-Jan-16 22:24N 28°08' W 015°25'0 0.0
2017-Jan-16 21:24N 28°08' W 015°25'0 0.0
2017-Jan-16 20:27N 28°08' W 015°25'0 0.0
2017-Jan-16 19:27N 28°08' W 015°25'0 0.0
2017-Jan-16 18:27N 28°08' W 015°25'0 0.0
2017-Jan-16 17:30N 28°08' W 015°25'0 0.0
2017-Jan-16 16:30N 28°08' W 015°25'0 0.0
2017-Jan-16 15:30N 28°08' W 015°25'0 0.0
2017-Jan-16 14:31N 28°08' W 015°25'0 0.0
2017-Jan-16 13:31N 28°08' W 015°25'0 0.4
2017-Jan-16 12:33N 28°08' W 015°25'5 5.2
2017-Jan-16 11:33N 28°10' W 015°20'1717.0
2017-Jan-16 10:33N 28°26' W 015°15'1817.7
2017-Jan-16 09:33N 28°43' W 015°09'  
2017-Jan-13 02:15N 50°15' W 001°41'1522.0
2017-Jan-13 01:33N 50°19' W 001°18'4020.1
2017-Jan-12 23:34N 50°29' W 000°17'1818.2
2017-Jan-12 22:33N 50°34' E 000°11'1717.2
2017-Jan-12 21:33N 50°38' E 000°37'1818.3
2017-Jan-12 20:32N 50°49' E 001°00'2120.7
2017-Jan-12 19:31N 51°02' E 001°27'2122.2
2017-Jan-12 18:33N 51°18' E 001°49'2019.7
2017-Jan-12 17:33N 51°38' E 001°46'1514.9
2017-Jan-12 16:33N 51°51' E 001°36'1111.1
2017-Jan-12 15:33N 51°55' E 001°19'2 2.0
2017-Jan-12 14:31N 51°57' E 001°18'0 0.0
2017-Jan-12 13:31N 51°57' E 001°18'0 0.0
2017-Jan-12 12:31N 51°57' E 001°18'0 0.0
2017-Jan-12 11:31N 51°57' E 001°18'0 0.0
2017-Jan-12 10:32N 51°57' E 001°18'0 0.0
2017-Jan-12 09:32N 51°57' E 001°18'0 0.0
2017-Jan-12 08:33N 51°57' E 001°18'0 0.0
2017-Jan-12 07:33N 51°57' E 001°18'0 0.0
2017-Jan-12 06:33N 51°57' E 001°18'0 0.0
2017-Jan-12 05:33N 51°57' E 001°18'0 0.0
2017-Jan-12 04:33N 51°57' E 001°18'0 0.0
2017-Jan-12 03:33N 51°57' E 001°18'0 0.0
2017-Jan-12 02:33N 51°57' E 001°18'0 0.0
2017-Jan-12 01:33N 51°57' E 001°18'0 0.0
2017-Jan-12 00:33N 51°57' E 001°18'0 0.0
2017-Jan-11 23:33N 51°57' E 001°18'0 0.0
2017-Jan-11 22:33N 51°57' E 001°18'0 0.0
2017-Jan-11 21:33N 51°57' E 001°18'0 0.0
2017-Jan-11 20:33N 51°57' E 001°18'0 0.0
2017-Jan-11 19:33N 51°57' E 001°18'2 2.1
2017-Jan-11 18:33N 51°55' E 001°19'1212.4
2017-Jan-11 17:33N 51°51' E 001°38'5 4.9
2017-Jan-11 16:33N 51°52' E 001°46'3 3.4
2017-Jan-11 15:34N 51°49' E 001°49'5 4.8
2017-Jan-11 14:33N 51°44' E 001°49'7 7.0
2017-Jan-11 13:33N 51°37' E 001°50'1615.7
2017-Jan-11 12:33N 51°24' E 002°04'1414.1
2017-Jan-11 11:33N 51°22' E 002°26'1312.6
2017-Jan-11 10:33N 51°22' E 002°47'1515.2
2017-Jan-11 09:33N 51°24' E 003°11'1515.5
2017-Jan-11 08:33N 51°26' E 003°35'9 9.4
2017-Jan-11 07:33N 51°21' E 003°48'1110.9
2017-Jan-11 06:32N 51°22' E 004°06'8 7.8
2017-Jan-11 05:34N 51°18' E 004°16'0 0.1
2017-Jan-11 04:32N 51°18' E 004°16'0 0.0
2017-Jan-11 03:32N 51°18' E 004°16'0 0.0
2017-Jan-11 02:32N 51°18' E 004°16'0 0.0
2017-Jan-11 01:23N 51°18' E 004°16'0 0.0
2017-Jan-11 00:32N 51°18' E 004°16'0 0.0
2017-Jan-10 23:28N 51°18' E 004°16'0 0.0
2017-Jan-10 22:32N 51°18' E 004°16'0 0.0
2017-Jan-10 21:25N 51°18' E 004°16'0 0.0
2017-Jan-10 20:28N 51°18' E 004°16'0 0.0
2017-Jan-10 19:32N 51°18' E 004°16'0 0.0
2017-Jan-10 18:31N 51°18' E 004°16'0 0.0
2017-Jan-10 17:32N 51°18' E 004°16'0 0.0
2017-Jan-10 16:32N 51°18' E 004°16'0 0.0
2017-Jan-10 15:32N 51°18' E 004°16'0 0.0
2017-Jan-10 14:29N 51°18' E 004°16'0 0.0
2017-Jan-10 13:28N 51°18' E 004°16'0 0.0
2017-Jan-10 12:32N 51°18' E 004°16'0 0.0
2017-Jan-10 11:32N 51°18' E 004°16'0 0.0
2017-Jan-10 10:31N 51°18' E 004°16'0 0.0
2017-Jan-10 09:31N 51°18' E 004°16'0 0.0
2017-Jan-10 08:32N 51°18' E 004°16'0 0.0
2017-Jan-10 07:28N 51°18' E 004°16'0 0.0
2017-Jan-10 06:31N 51°18' E 004°16'0 0.0
2017-Jan-10 05:31N 51°18' E 004°16'0 0.0
2017-Jan-10 04:31N 51°18' E 004°16'3 2.9
2017-Jan-10 03:33N 51°21' E 004°16'10 9.6
2017-Jan-10 02:33N 51°25' E 004°02'1010.5
2017-Jan-10 01:33N 51°21' E 003°46'10 9.6
2017-Jan-10 00:33N 51°25' E 003°32'1515.6
2017-Jan-09 23:34N 51°24' E 003°07'1514.7
2017-Jan-09 22:33N 51°22' E 002°44'  
Track history (hours):
 
Tides and Currents Weather Stations Pressure Air Temp Water Temp Dewpoint Dewpoint Depression Visibility Wind Speed Wind Dir Waves Ship Positions

MSC Jordan

Last reported at 2017-Jan-19 22:30 UTC. Time now 2017-Jan-22 20:19 UTC.
Position N 14°09' W 017°24'.

Length 237 m; draft 10.9 m.

Type: Ship. MMSI: 355194000.

Date/timePositionNaut miles runAvg speedWind from/ knotsBaromVisibWave heightAir tempDewpointWater temp
2017-Jan-19 22:30N 14°09' W 017°24'1920.0
2017-Jan-19 21:33N 14°28' W 017°24'1313.1
2017-Jan-19 20:33N 14°41' W 017°25'0 0.4
2017-Jan-19 19:30N 14°41' W 017°26'0 0.0
2017-Jan-19 18:30N 14°41' W 017°26'0 0.0
2017-Jan-19 17:33N 14°41' W 017°26'0 0.0
2017-Jan-19 16:06N 14°41' W 017°26'0 0.0
2017-Jan-19 15:33N 14°41' W 017°26'0 0.0
2017-Jan-19 14:30N 14°41' W 017°26'0 0.0
2017-Jan-19 13:33N 14°41' W 017°26'0 0.0
2017-Jan-19 12:33N 14°41' W 017°26'0 0.0
2017-Jan-19 11:33N 14°41' W 017°26'0 0.0
2017-Jan-19 10:33N 14°41' W 017°26'3 2.9
2017-Jan-19 09:33N 14°41' W 017°23'6 2.9
2017-Jan-19 07:32N 14°36' W 017°19'43 6.8
2017-Jan-19 01:14N 15°11' W 017°44'76816.5
2017-Jan-17 02:33N 27°47' W 015°17'1817.7
2017-Jan-17 01:33N 28°04' W 015°20'6 5.9
2017-Jan-17 00:33N 28°08' W 015°25'0 0.0
2017-Jan-16 23:21N 28°08' W 015°25'0 0.0
2017-Jan-16 22:24N 28°08' W 015°25'0 0.0
2017-Jan-16 21:24N 28°08' W 015°25'0 0.0
2017-Jan-16 20:27N 28°08' W 015°25'0 0.0
2017-Jan-16 19:27N 28°08' W 015°25'0 0.0
2017-Jan-16 18:27N 28°08' W 015°25'0 0.0
2017-Jan-16 17:30N 28°08' W 015°25'0 0.0
2017-Jan-16 16:30N 28°08' W 015°25'0 0.0
2017-Jan-16 15:30N 28°08' W 015°25'0 0.0
2017-Jan-16 14:31N 28°08' W 015°25'0 0.0
2017-Jan-16 13:31N 28°08' W 015°25'0 0.4
2017-Jan-16 12:33N 28°08' W 015°25'5 5.2
2017-Jan-16 11:33N 28°10' W 015°20'1717.0
2017-Jan-16 10:33N 28°26' W 015°15'1817.7
2017-Jan-16 09:33N 28°43' W 015°09'  
2017-Jan-13 02:15N 50°15' W 001°41'1522.0
2017-Jan-13 01:33N 50°19' W 001°18'4020.1
2017-Jan-12 23:34N 50°29' W 000°17'1818.2
2017-Jan-12 22:33N 50°34' E 000°11'1717.2
2017-Jan-12 21:33N 50°38' E 000°37'1818.3
2017-Jan-12 20:32N 50°49' E 001°00'2120.7
2017-Jan-12 19:31N 51°02' E 001°27'2122.2
2017-Jan-12 18:33N 51°18' E 001°49'2019.7
2017-Jan-12 17:33N 51°38' E 001°46'1514.9
2017-Jan-12 16:33N 51°51' E 001°36'1111.1
2017-Jan-12 15:33N 51°55' E 001°19'2 2.0
2017-Jan-12 14:31N 51°57' E 001°18'0 0.0
2017-Jan-12 13:31N 51°57' E 001°18'0 0.0
2017-Jan-12 12:31N 51°57' E 001°18'0 0.0
2017-Jan-12 11:31N 51°57' E 001°18'0 0.0
2017-Jan-12 10:32N 51°57' E 001°18'0 0.0
2017-Jan-12 09:32N 51°57' E 001°18'0 0.0
2017-Jan-12 08:33N 51°57' E 001°18'0 0.0
2017-Jan-12 07:33N 51°57' E 001°18'0 0.0
2017-Jan-12 06:33N 51°57' E 001°18'0 0.0
2017-Jan-12 05:33N 51°57' E 001°18'0 0.0
2017-Jan-12 04:33N 51°57' E 001°18'0 0.0
2017-Jan-12 03:33N 51°57' E 001°18'0 0.0
2017-Jan-12 02:33N 51°57' E 001°18'0 0.0
2017-Jan-12 01:33N 51°57' E 001°18'0 0.0
2017-Jan-12 00:33N 51°57' E 001°18'0 0.0
2017-Jan-11 23:33N 51°57' E 001°18'0 0.0
2017-Jan-11 22:33N 51°57' E 001°18'0 0.0
2017-Jan-11 21:33N 51°57' E 001°18'0 0.0
2017-Jan-11 20:33N 51°57' E 001°18'0 0.0
2017-Jan-11 19:33N 51°57' E 001°18'2 2.1
2017-Jan-11 18:33N 51°55' E 001°19'1212.4
2017-Jan-11 17:33N 51°51' E 001°38'5 4.9
2017-Jan-11 16:33N 51°52' E 001°46'3 3.4
2017-Jan-11 15:34N 51°49' E 001°49'5 4.8
2017-Jan-11 14:33N 51°44' E 001°49'7 7.0
2017-Jan-11 13:33N 51°37' E 001°50'1615.7
2017-Jan-11 12:33N 51°24' E 002°04'1414.1
2017-Jan-11 11:33N 51°22' E 002°26'1312.6
2017-Jan-11 10:33N 51°22' E 002°47'1515.2
2017-Jan-11 09:33N 51°24' E 003°11'1515.5
2017-Jan-11 08:33N 51°26' E 003°35'9 9.4
2017-Jan-11 07:33N 51°21' E 003°48'1110.9
2017-Jan-11 06:32N 51°22' E 004°06'8 7.8
2017-Jan-11 05:34N 51°18' E 004°16'0 0.1
2017-Jan-11 04:32N 51°18' E 004°16'0 0.0
2017-Jan-11 03:32N 51°18' E 004°16'0 0.0
2017-Jan-11 02:32N 51°18' E 004°16'0 0.0
2017-Jan-11 01:23N 51°18' E 004°16'0 0.0
2017-Jan-11 00:32N 51°18' E 004°16'0 0.0
2017-Jan-10 23:28N 51°18' E 004°16'0 0.0
2017-Jan-10 22:32N 51°18' E 004°16'0 0.0
2017-Jan-10 21:25N 51°18' E 004°16'0 0.0
2017-Jan-10 20:28N 51°18' E 004°16'0 0.0
2017-Jan-10 19:32N 51°18' E 004°16'0 0.0
2017-Jan-10 18:31N 51°18' E 004°16'0 0.0
2017-Jan-10 17:32N 51°18' E 004°16'0 0.0
2017-Jan-10 16:32N 51°18' E 004°16'0 0.0
2017-Jan-10 15:32N 51°18' E 004°16'0 0.0
2017-Jan-10 14:29N 51°18' E 004°16'0 0.0
2017-Jan-10 13:28N 51°18' E 004°16'0 0.0
2017-Jan-10 12:32N 51°18' E 004°16'0 0.0
2017-Jan-10 11:32N 51°18' E 004°16'0 0.0
2017-Jan-10 10:31N 51°18' E 004°16'0 0.0
2017-Jan-10 09:31N 51°18' E 004°16'0 0.0
2017-Jan-10 08:32N 51°18' E 004°16'0 0.0
2017-Jan-10 07:28N 51°18' E 004°16'0 0.0
2017-Jan-10 06:31N 51°18' E 004°16'0 0.0
2017-Jan-10 05:31N 51°18' E 004°16'0 0.0
2017-Jan-10 04:31N 51°18' E 004°16'3 2.9
2017-Jan-10 03:33N 51°21' E 004°16'10 9.6
2017-Jan-10 02:33N 51°25' E 004°02'1010.5
2017-Jan-10 01:33N 51°21' E 003°46'10 9.6
2017-Jan-10 00:33N 51°25' E 003°32'1515.6
2017-Jan-09 23:34N 51°24' E 003°07'1514.7
2017-Jan-09 22:33N 51°22' E 002°44'  

Dump ship's entire track history